Time;durP1;ratioP1;P1;durP2;ratioP2;P2;SDS_P1;SDS_P2;PMS_P1;PMS_P2;Temp;Humidity;BMP_temperature;BMP_pressure;BME280_temperature;BME280_humidity;BME280_pressure;Samples;Min_cycle;Max_cycle;Signal;HPM_P1;HPM_P2
2022/08/26 00:03:18;;;;;;;10.73;2.88;;;;;20.40;101111.00;;;;12840032;22;20214;-77
2022/08/26 00:08:20;;;;;;;3.50;1.60;;;;;20.30;101116.00;;;;12865398;22;20166;-77
2022/08/26 00:13:21;;;;;;;9.98;2.10;;;;;20.30;101110.00;;;;12865846;22;20174;-78
2022/08/26 00:18:23;;;;;;;6.28;1.85;;;;;20.30;101110.00;;;;12838105;22;20691;-77
2022/08/26 00:23:26;;;;;;;2.83;1.33;;;;;20.20;101114.00;;;;12864358;22;20190;-77
2022/08/26 00:28:30;;;;;;;5.70;1.70;;;;;20.20;101104.00;;;;12840375;22;20197;-77
2022/08/26 00:33:31;;;;;;;4.05;1.60;;;;;20.10;101107.00;;;;12866987;22;20216;-78
2022/08/26 00:38:34;;;;;;;7.05;1.45;;;;;20.00;101108.00;;;;12864703;22;20257;-76
2022/08/26 00:43:38;;;;;;;1.73;1.00;;;;;20.00;101119.00;;;;12816521;22;20198;-78
2022/08/26 00:48:52;;;;;;;4.55;1.50;;;;;19.90;101114.00;;;;12794378;22;20682;-77
2022/08/26 00:54:03;;;;;;;4.07;1.45;;;;;19.80;101130.00;;;;12820221;22;20174;-78
2022/08/26 00:59:10;;;;;;;4.22;1.25;;;;;19.80;101124.00;;;;12795468;22;20786;-77
2022/08/26 01:04:14;;;;;;;5.85;1.27;;;;;19.70;101111.00;;;;12819358;22;20174;-78
2022/08/26 01:09:16;;;;;;;5.10;1.48;;;;;19.60;101109.00;;;;12769916;22;20265;-77
2022/08/26 01:14:21;;;;;;;4.70;1.20;;;;;19.60;101114.00;;;;12838272;22;20158;-78
2022/08/26 01:19:41;;;;;;;2.40;1.25;;;;;19.60;101117.00;;;;12792710;22;20221;-77
2022/08/26 01:24:42;;;;;;;3.45;1.08;;;;;19.50;101110.00;;;;12792708;22;20236;-77
2022/08/26 01:29:47;;;;;;;4.22;1.02;;;;;19.50;101111.00;;;;12863941;22;20169;-77
2022/08/26 01:34:51;;;;;;;3.63;1.08;;;;;19.40;101115.00;;;;12844121;22;20201;-77
2022/08/26 01:39:54;;;;;;;5.30;1.50;;;;;19.40;101117.00;;;;12818986;22;20223;-77
2022/08/26 01:45:18;;;;;;;9.27;1.90;;;;;19.50;101124.00;;;;12837654;22;20169;-77
2022/08/26 01:50:24;;;;;;;7.03;1.70;;;;;19.60;101121.00;;;;12815044;22;20216;-77
2022/08/26 01:55:31;;;;;;;7.78;1.55;;;;;19.50;101129.00;;;;12863610;22;20173;-77
2022/08/26 02:00:35;;;;;;;7.28;1.65;;;;;19.50;101126.00;;;;12793362;22;20574;-76
2022/08/26 02:05:36;;;;;;;4.88;1.45;;;;;19.50;101133.00;;;;12843666;22;20259;-77
2022/08/26 02:10:38;;;;;;;5.30;1.45;;;;;19.40;101142.00;;;;12793581;22;20174;-77
2022/08/26 02:15:42;;;;;;;3.13;1.17;;;;;19.40;101136.00;;;;12819945;22;20194;-77
2022/08/26 02:20:44;;;;;;;7.72;1.48;;;;;19.40;101131.00;;;;12817676;22;20534;-77
2022/08/26 02:26:12;;;;;;;3.13;1.10;;;;;19.40;101133.00;;;;12863167;22;20186;-77
2022/08/26 02:31:18;;;;;;;4.85;1.40;;;;;19.30;101126.00;;;;12864833;22;20177;-77
2022/08/26 02:36:25;;;;;;;6.00;1.67;;;;;19.30;101131.00;;;;12863767;22;20186;-77
2022/08/26 02:41:29;;;;;;;4.97;1.60;;;;;19.20;101133.00;;;;12838704;22;20194;-76
2022/08/26 02:46:33;;;;;;;4.63;1.80;;;;;19.20;101133.00;;;;12864245;22;20237;-77
2022/08/26 02:51:35;;;;;;;3.45;1.20;;;;;19.20;101132.00;;;;12864194;22;20196;-77
2022/08/26 02:56:37;;;;;;;3.75;1.48;;;;;19.10;101132.00;;;;12793789;22;20186;-76
2022/08/26 03:01:39;;;;;;;6.90;1.45;;;;;19.10;101129.00;;;;12866321;22;20193;-77
2022/08/26 03:06:41;;;;;;;3.20;1.52;;;;;19.10;101130.00;;;;12866032;22;20192;-78
2022/08/26 03:11:44;;;;;;;3.90;1.50;;;;;19.10;101127.00;;;;12845676;22;20258;-77
2022/08/26 03:16:46;;;;;;;4.43;1.50;;;;;19.20;101132.00;;;;12865861;22;20511;-77
2022/08/26 03:21:51;;;;;;;4.07;1.20;;;;;19.10;101128.00;;;;12796211;22;20678;-77
2022/08/26 03:26:53;;;;;;;6.80;2.15;;;;;19.10;101128.00;;;;12821911;22;20797;-77
2022/08/26 03:31:54;;;;;;;3.45;1.55;;;;;19.10;101125.00;;;;12819484;22;20173;-76
2022/08/26 03:36:56;;;;;;;7.32;1.98;;;;;19.00;101120.00;;;;12793949;22;20228;-76
2022/08/26 03:41:57;;;;;;;2.38;1.33;;;;;19.00;101115.00;;;;12771165;22;20194;-77
2022/08/26 03:46:59;;;;;;;4.80;1.60;;;;;19.00;101113.00;;;;12867265;22;20166;-77
2022/08/26 03:52:01;;;;;;;7.20;1.48;;;;;19.10;101108.00;;;;12814761;22;20193;-77
2022/08/26 03:57:02;;;;;;;7.63;1.70;;;;;19.10;101108.00;;;;12842784;22;20165;-77
2022/08/26 04:02:04;;;;;;;3.42;1.40;;;;;19.10;101104.00;;;;12793792;22;20885;-77
2022/08/26 04:07:12;;;;;;;5.53;1.58;;;;;19.10;101111.00;;;;12771878;22;20166;-76
2022/08/26 04:12:13;;;;;;;4.78;1.30;;;;;19.10;101118.00;;;;12865218;22;20735;-76
2022/08/26 04:17:15;;;;;;;7.07;1.73;;;;;19.20;101124.00;;;;12820062;22;20170;-77
2022/08/26 04:22:17;;;;;;;6.32;1.23;;;;;19.20;101132.00;;;;12793545;22;20240;-77
2022/08/26 04:27:26;;;;;;;4.28;1.73;;;;;19.20;101123.00;;;;12844834;22;20174;-77
2022/08/26 04:32:27;;;;;;;6.22;1.95;;;;;19.30;101123.00;;;;12818328;22;20170;-77
2022/08/26 04:37:30;;;;;;;2.72;1.20;;;;;19.30;101134.00;;;;12820660;22;20233;-78
2022/08/26 04:42:33;;;;;;;5.13;2.15;;;;;19.30;101137.00;;;;12820014;22;20938;-78
2022/08/26 04:47:35;;;;;;;5.20;1.70;;;;;19.20;101139.00;;;;12817126;22;20174;-77
2022/08/26 04:52:36;;;;;;;4.95;1.70;;;;;19.20;101147.00;;;;12817521;22;20181;-78
2022/08/26 04:57:37;;;;;;;4.25;1.45;;;;;19.30;101146.00;;;;12820044;22;20235;-77
2022/08/26 05:02:40;;;;;;;5.30;1.30;;;;;19.30;101139.00;;;;12817959;22;20201;-78
2022/08/26 05:07:41;;;;;;;5.05;1.25;;;;;19.30;101135.00;;;;12819570;22;20176;-77
2022/08/26 05:12:42;;;;;;;4.70;1.30;;;;;19.30;101143.00;;;;12863680;22;20158;-78
2022/08/26 05:17:45;;;;;;;5.05;1.40;;;;;19.30;101144.00;;;;12863255;22;20189;-77
2022/08/26 05:22:46;;;;;;;3.33;1.38;;;;;19.30;101142.00;;;;12818895;22;20621;-77
2022/08/26 05:27:48;;;;;;;3.22;1.10;;;;;19.20;101136.00;;;;12816824;22;20249;-77
2022/08/26 05:32:50;;;;;;;6.28;1.30;;;;;19.30;101149.00;;;;12818059;22;20185;-77
2022/08/26 05:37:56;;;;;;;3.58;1.40;;;;;19.30;101150.00;;;;12845536;22;20190;-78
2022/08/26 05:42:59;;;;;;;3.58;1.17;;;;;19.30;101164.00;;;;12840803;22;20194;-77
2022/08/26 05:48:00;;;;;;;3.70;1.20;;;;;19.20;101162.00;;;;12793330;22;20193;-78
2022/08/26 05:53:01;;;;;;;5.47;1.13;;;;;19.20;101165.00;;;;12792351;22;20189;-78
2022/08/26 05:58:03;;;;;;;2.53;1.20;;;;;19.20;101169.00;;;;12792653;22;20170;-78
2022/08/26 06:03:07;;;;;;;2.22;1.20;;;;;19.30;101171.00;;;;12817640;22;20742;-78
2022/08/26 06:08:14;;;;;;;3.50;1.30;;;;;19.30;101173.00;;;;12838163;22;20170;-78
2022/08/26 06:13:23;;;;;;;7.75;1.23;;;;;19.40;101168.00;;;;12863776;22;20172;-77
2022/08/26 06:18:31;;;;;;;5.97;1.30;;;;;19.60;101175.00;;;;12793042;22;20583;-78
2022/08/26 06:28:52;;;;;;;3.38;1.45;;;;;19.90;101169.00;;;;12863516;22;20166;-78
2022/08/26 06:33:54;;;;;;;4.40;1.35;;;;;19.90;101173.00;;;;12838538;22;20170;-77
2022/08/26 06:39:00;;;;;;;4.50;1.23;;;;;20.00;101175.00;;;;12820240;22;20641;-77
2022/08/26 06:44:03;;;;;;;2.38;1.20;;;;;20.00;101181.00;;;;12841419;22;20201;-78
2022/08/26 06:49:05;;;;;;;3.67;1.00;;;;;20.20;101188.00;;;;12819935;22;20395;-77
2022/08/26 06:54:07;;;;;;;4.10;1.20;;;;;20.30;101191.00;;;;12838727;22;20616;-77
2022/08/26 06:59:10;;;;;;;4.65;1.08;;;;;20.30;101203.00;;;;12865390;22;20763;-77
2022/08/26 07:04:15;;;;;;;4.63;1.08;;;;;20.40;101194.00;;;;12865309;22;20177;-77
2022/08/26 07:09:26;;;;;;;5.55;1.60;;;;;20.70;101200.00;;;;12819500;22;20605;-77
2022/08/26 07:14:27;;;;;;;4.10;1.30;;;;;20.90;101192.00;;;;12794177;22;20272;-77
2022/08/26 07:19:28;;;;;;;2.15;1.02;;;;;21.30;101205.00;;;;12816755;22;20166;-77
2022/08/26 07:24:36;;;;;;;4.97;1.23;;;;;21.50;101201.00;;;;12818166;22;20186;-77
2022/08/26 07:29:39;;;;;;;3.35;1.00;;;;;21.30;101199.00;;;;12816832;22;20170;-77
2022/08/26 07:34:42;;;;;;;7.47;1.40;;;;;21.40;101195.00;;;;12840794;22;20166;-77
2022/08/26 07:39:44;;;;;;;4.97;1.25;;;;;21.60;101198.00;;;;12861495;22;20857;-78
2022/08/26 07:44:45;;;;;;;6.18;1.42;;;;;21.70;101203.00;;;;12862205;22;20177;-77
2022/08/26 07:49:47;;;;;;;3.30;0.90;;;;;22.00;101207.00;;;;12832703;22;20166;-78
2022/08/26 07:54:58;;;;;;;5.40;1.27;;;;;22.40;101216.00;;;;12792956;22;20243;-77
2022/08/26 08:00:01;;;;;;;4.88;1.40;;;;;22.50;101219.00;;;;12814742;22;20190;-78
2022/08/26 08:05:15;;;;;;;4.90;1.15;;;;;22.70;101218.00;;;;12835799;22;20166;-77
2022/08/26 08:10:21;;;;;;;8.82;1.25;;;;;22.10;101224.00;;;;12792149;22;20202;-78
2022/08/26 08:15:28;;;;;;;5.57;1.50;;;;;21.50;101232.00;;;;12820482;22;21028;-77
2022/08/26 08:20:30;;;;;;;4.18;0.90;;;;;21.30;101231.00;;;;12839837;22;20220;-77
2022/08/26 08:25:33;;;;;;;7.03;1.42;;;;;21.20;101227.00;;;;12819017;22;20174;-78
2022/08/26 08:30:37;;;;;;;2.53;0.90;;;;;21.20;101227.00;;;;12843975;22;20178;-78
2022/08/26 08:35:41;;;;;;;5.05;1.10;;;;;21.30;101232.00;;;;12863818;22;20220;-77
2022/08/26 08:40:44;;;;;;;5.32;0.80;;;;;21.30;101231.00;;;;12863107;22;20191;-77
2022/08/26 08:45:56;;;;;;;3.17;1.02;;;;;21.30;101230.00;;;;12793000;22;20489;-77
2022/08/26 08:51:12;;;;;;;4.90;1.45;;;;;21.30;101234.00;;;;12792412;22;20162;-78
2022/08/26 08:56:26;;;;;;;2.28;1.15;;;;;21.50;101224.00;;;;12793688;22;20182;-77
2022/08/26 09:02:04;;;;;;;4.25;1.30;;;;;21.90;101226.00;;;;12852949;22;20459;-77
2022/08/26 09:08:03;;;;;;;3.20;1.20;;;;;21.80;101239.00;;;;12837832;22;20193;-78
2022/08/26 09:13:10;;;;;;;5.03;1.42;;;;;21.90;101237.00;;;;12790594;22;20174;-77
2022/08/26 09:18:17;;;;;;;3.72;1.20;;;;;21.80;101242.00;;;;12814619;22;20182;-78
2022/08/26 09:23:19;;;;;;;3.95;1.20;;;;;21.70;101252.00;;;;12792120;22;20782;-77
2022/08/26 09:28:23;;;;;;;5.90;1.15;;;;;21.90;101241.00;;;;12790001;22;20174;-78
2022/08/26 09:33:34;;;;;;;2.28;0.95;;;;;22.10;101250.00;;;;12847727;22;20174;-78
2022/08/26 09:38:44;;;;;;;2.38;0.98;;;;;22.00;101252.00;;;;12857016;22;20197;-78
2022/08/26 09:44:14;;;;;;;3.25;1.10;;;;;21.80;101256.00;;;;12788600;22;20198;-77
2022/08/26 09:49:38;;;;;;;3.25;1.00;;;;;21.60;101241.00;;;;12760511;22;20178;-76
2022/08/26 09:54:43;;;;;;;6.00;1.40;;;;;21.70;101251.00;;;;12806076;22;20166;-78
2022/08/26 09:59:48;;;;;;;2.25;1.20;;;;;21.80;101252.00;;;;12834052;22;20185;-77
2022/08/26 10:04:53;;;;;;;5.15;1.10;;;;;22.00;101243.00;;;;12834111;22;20498;-78
2022/08/26 10:09:54;;;;;;;2.72;1.20;;;;;22.30;101235.00;;;;12835335;22;20193;-77
2022/08/26 10:15:02;;;;;;;4.22;1.20;;;;;22.70;101238.00;;;;12862196;22;20166;-79
2022/08/26 10:20:10;;;;;;;5.32;1.30;;;;;22.60;101241.00;;;;12814359;22;20459;-79
2022/08/26 10:25:52;;;;;;;3.47;1.60;;;;;22.50;101244.00;;;;12813673;22;20193;-78
2022/08/26 10:31:27;;;;;;;3.05;1.52;;;;;22.20;101237.00;;;;12833648;22;20178;-77
2022/08/26 10:36:50;;;;;;;3.05;1.13;;;;;22.00;101234.00;;;;12810617;22;20186;-78
2022/08/26 10:42:23;;;;;;;1.38;1.02;;;;;22.20;101240.00;;;;12863006;22;20189;-77
2022/08/26 10:47:36;;;;;;;3.60;1.75;;;;;22.40;101246.00;;;;12815266;22;20173;-79
2022/08/26 10:52:54;;;;;;;2.20;1.50;;;;;22.60;101236.00;;;;12812313;22;20166;-77
2022/08/26 10:58:02;;;;;;;2.13;1.40;;;;;22.80;101241.00;;;;12821089;22;20588;-78
2022/08/26 11:03:41;;;;;;;4.82;1.30;;;;;23.50;101237.00;;;;12862464;22;20457;-79
2022/08/26 11:08:48;;;;;;;7.00;2.53;;;;;23.40;101239.00;;;;12791922;22;20180;-78
2022/08/26 11:14:19;;;;;;;4.07;2.22;;;;;23.40;101236.00;;;;12805268;22;20732;-79
2022/08/26 11:19:40;;;;;;;3.35;1.48;;;;;23.20;101240.00;;;;12836015;22;20182;-78
2022/08/26 11:25:21;;;;;;;2.47;1.95;;;;;23.50;101227.00;;;;12768934;22;20174;-78
2022/08/26 11:30:41;;;;;;;2.67;1.92;;;;;23.70;101231.00;;;;12790801;22;20182;-79
2022/08/26 11:35:45;;;;;;;3.90;1.70;;;;;23.90;101223.00;;;;12862096;22;20439;-78
2022/08/26 11:41:06;;;;;;;2.90;1.25;;;;;24.20;101222.00;;;;12833301;22;20183;-77
2022/08/26 11:46:34;;;;;;;3.75;1.50;;;;;24.60;101221.00;;;;12861128;22;20387;-78
2022/08/26 11:51:37;;;;;;;2.17;1.25;;;;;25.00;101211.00;;;;12858705;22;20253;-79
2022/08/26 11:56:45;;;;;;;1.40;1.17;;;;;25.60;101213.00;;;;12790702;22;20185;-78
2022/08/26 12:01:51;;;;;;;3.10;1.30;;;;;25.80;101213.00;;;;12838227;22;20256;-78
2022/08/26 12:06:53;;;;;;;3.35;1.08;;;;;25.30;101214.00;;;;12814731;22;20183;-78
2022/08/26 12:12:21;;;;;;;4.57;1.40;;;;;25.10;101205.00;;;;12790180;22;20254;-78
2022/08/26 12:17:38;;;;;;;4.80;1.30;;;;;25.90;101191.00;;;;12808268;22;20270;-79
2022/08/26 12:22:43;;;;;;;2.75;1.23;;;;;25.80;101191.00;;;;12811349;22;20198;-78
2022/08/26 12:27:49;;;;;;;3.63;1.45;;;;;26.20;101183.00;;;;12854403;22;20170;-78
2022/08/26 12:33:12;;;;;;;3.95;1.20;;;;;26.70;101179.00;;;;12814037;22;20170;-79
2022/08/26 12:38:28;;;;;;;2.80;1.10;;;;;27.20;101196.00;;;;12789750;22;20190;-78
2022/08/26 12:43:38;;;;;;;3.33;1.45;;;;;27.30;101189.00;;;;12822736;22;20190;-79
2022/08/26 12:49:02;;;;;;;4.07;1.10;;;;;27.30;101195.00;;;;12832288;22;20178;-79
2022/08/26 12:54:14;;;;;;;3.17;1.27;;;;;27.10;101200.00;;;;12815199;22;20260;-78
2022/08/26 12:59:29;;;;;;;2.80;1.20;;;;;27.10;101185.00;;;;12796767;22;20181;-78
2022/08/26 13:05:06;;;;;;;4.07;1.25;;;;;27.20;101181.00;;;;12783346;22;20205;-78
2022/08/26 13:10:39;;;;;;;3.42;1.50;;;;;27.10;101192.00;;;;12855403;22;20364;-78
2022/08/26 13:15:43;;;;;;;5.82;1.30;;;;;27.40;101182.00;;;;12754359;22;20197;-78
2022/08/26 13:20:48;;;;;;;2.75;1.15;;;;;27.10;101186.00;;;;12809792;22;20248;-77
2022/08/26 13:26:07;;;;;;;2.38;1.20;;;;;27.10;101181.00;;;;12815681;22;20201;-77
2022/08/26 13:31:19;;;;;;;5.53;1.63;;;;;26.30;101179.00;;;;12815655;22;20211;-78
2022/08/26 13:36:28;;;;;;;5.00;1.42;;;;;26.50;101164.00;;;;12792019;22;20190;-79
2022/08/26 13:41:30;;;;;;;4.53;1.50;;;;;26.80;101171.00;;;;12785688;22;20251;-79
2022/08/26 13:46:32;;;;;;;3.88;1.60;;;;;26.80;101170.00;;;;12805213;22;20181;-79
2022/08/26 13:51:33;;;;;;;5.53;1.35;;;;;26.80;101165.00;;;;12859492;22;20181;-78
2022/08/26 13:56:35;;;;;;;4.15;1.35;;;;;26.20;101156.00;;;;12814597;22;20181;-79
2022/08/26 14:01:38;;;;;;;3.65;1.23;;;;;26.80;101162.00;;;;12813736;22;20201;-78
2022/08/26 14:06:39;;;;;;;2.92;1.25;;;;;27.10;101166.00;;;;12861767;22;20163;-79
2022/08/26 14:11:41;;;;;;;6.28;1.40;;;;;28.60;101143.00;;;;12834090;22;20170;-78
2022/08/26 14:16:55;;;;;;;5.53;1.40;;;;;28.30;101149.00;;;;12856711;22;20162;-77
2022/08/26 14:22:01;;;;;;;2.58;1.33;;;;;28.80;101134.00;;;;12833229;22;20204;-78
2022/08/26 14:27:02;;;;;;;2.65;0.98;;;;;29.00;101153.00;;;;12832739;22;20188;-77
2022/08/26 14:32:10;;;;;;;2.58;1.17;;;;;30.90;101130.00;;;;12807391;22;20224;-77
2022/08/26 14:37:11;;;;;;;3.38;1.48;;;;;35.20;101122.00;;;;12783146;22;20277;-77
2022/08/26 14:42:21;;;;;;;2.65;1.20;;;;;35.80;101153.00;;;;12809982;22;20547;-77
2022/08/26 14:47:22;;;;;;;1.92;1.20;;;;;34.90;101124.00;;;;12812174;22;20186;-78
2022/08/26 14:52:24;;;;;;;5.60;1.88;;;;;29.20;101137.00;;;;12861190;22;20250;-78
2022/08/26 14:57:26;;;;;;;2.17;1.45;;;;;27.00;101131.00;;;;12791332;22;20173;-77
2022/08/26 15:02:27;;;;;;;5.25;2.20;;;;;27.80;101129.00;;;;12861393;22;20263;-78
2022/08/26 15:07:34;;;;;;;4.70;2.03;;;;;27.30;101129.00;;;;12815981;22;20182;-78
2022/08/26 15:12:36;;;;;;;4.05;1.92;;;;;27.00;101126.00;;;;12816062;22;20248;-79
2022/08/26 15:17:38;;;;;;;3.92;2.00;;;;;26.80;101130.00;;;;12815679;22;20516;-78
2022/08/26 15:22:41;;;;;;;4.15;1.90;;;;;26.10;101126.00;;;;12862278;22;20194;-79
2022/08/26 15:27:43;;;;;;;5.22;2.17;;;;;25.40;101120.00;;;;12862464;22;20322;-78
2022/08/26 15:32:44;;;;;;;5.00;1.80;;;;;24.90;101124.00;;;;12851311;22;20169;-78
2022/08/26 15:37:45;;;;;;;2.58;1.80;;;;;24.80;101118.00;;;;12816280;22;20194;-77
2022/08/26 15:42:47;;;;;;;2.33;1.52;;;;;24.90;101128.00;;;;12862465;22;20190;-78
2022/08/26 15:47:55;;;;;;;1.98;1.58;;;;;25.20;101132.00;;;;12793107;22;20170;-77
2022/08/26 15:53:03;;;;;;;3.85;2.00;;;;;25.10;101123.00;;;;12817052;22;20552;-78
2022/08/26 15:58:04;;;;;;;2.90;1.90;;;;;25.10;101122.00;;;;12815987;22;20166;-78
2022/08/26 16:03:06;;;;;;;2.35;1.83;;;;;24.40;101115.00;;;;12815310;22;20649;-78
2022/08/26 16:08:08;;;;;;;4.15;1.75;;;;;23.90;101109.00;;;;12792658;22;20254;-79
2022/08/26 16:13:11;;;;;;;3.35;2.15;;;;;23.80;101111.00;;;;12818012;22;20224;-79
2022/08/26 16:18:15;;;;;;;5.57;1.83;;;;;23.80;101116.00;;;;12860615;22;20945;-79
2022/08/26 16:23:18;;;;;;;3.15;1.73;;;;;24.00;101106.00;;;;12816111;22;20194;-79
2022/08/26 16:28:19;;;;;;;3.50;1.60;;;;;23.90;101117.00;;;;12816459;22;20222;-79
2022/08/26 16:33:28;;;;;;;4.85;1.92;;;;;23.80;101124.00;;;;12835775;22;20197;-79
2022/08/26 16:38:30;;;;;;;3.65;1.92;;;;;23.80;101118.00;;;;12814959;22;20202;-79
2022/08/26 16:43:32;;;;;;;5.88;1.98;;;;;23.60;101129.00;;;;12816172;22;20595;-78
2022/08/26 16:48:34;;;;;;;3.00;1.60;;;;;23.70;101117.00;;;;12790400;22;20176;-77
2022/08/26 16:53:35;;;;;;;3.83;1.70;;;;;23.50;101116.00;;;;12816393;22;20220;-78
2022/08/26 16:58:36;;;;;;;2.20;1.58;;;;;23.30;101115.00;;;;12764836;22;20178;-77
2022/08/26 17:03:37;;;;;;;7.22;1.90;;;;;23.10;101116.00;;;;12839344;22;20251;-78
2022/08/26 17:08:40;;;;;;;2.92;1.75;;;;;22.90;101106.00;;;;12789477;22;20175;-77
2022/08/26 17:13:42;;;;;;;3.75;1.90;;;;;22.90;101111.00;;;;12832478;22;20526;-78
2022/08/26 17:18:43;;;;;;;4.45;1.85;;;;;23.20;101111.00;;;;12791433;22;20173;-78
2022/08/26 17:23:45;;;;;;;5.00;1.90;;;;;23.20;101112.00;;;;12791553;22;20194;-79
2022/08/26 17:28:46;;;;;;;5.47;1.60;;;;;23.20;101121.00;;;;12764737;22;20173;-79
2022/08/26 17:33:48;;;;;;;4.53;2.03;;;;;23.00;101108.00;;;;12764725;22;20184;-77
2022/08/26 17:38:58;;;;;;;3.03;1.95;;;;;22.80;101123.00;;;;12812609;22;20186;-78
2022/08/26 17:43:59;;;;;;;3.78;1.88;;;;;22.60;101117.00;;;;12836530;22;20261;-76
2022/08/26 17:49:05;;;;;;;3.85;2.03;;;;;22.50;101132.00;;;;12782841;22;20957;-76
2022/08/26 17:54:06;;;;;;;5.88;1.80;;;;;22.30;101139.00;;;;12826416;22;20280;-76
2022/08/26 17:59:08;;;;;;;7.60;5.65;;;;;22.10;101135.00;;;;12804213;22;20170;-77
2022/08/26 18:04:10;;;;;;;4.97;2.03;;;;;21.80;101137.00;;;;12778180;22;20320;-78
2022/08/26 18:09:12;;;;;;;6.53;2.38;;;;;21.60;101140.00;;;;12782383;22;20177;-77
2022/08/26 18:14:13;;;;;;;4.68;2.60;;;;;21.30;101143.00;;;;12764723;22;20806;-76
2022/08/26 18:19:15;;;;;;;4.93;2.90;;;;;21.20;101151.00;;;;12830708;22;20179;-76
2022/08/26 18:24:17;;;;;;;4.80;2.45;;;;;21.20;101153.00;;;;12786176;22;20194;-77
2022/08/26 18:29:19;;;;;;;8.10;4.85;;;;;21.10;101156.00;;;;12832686;22;20162;-77
2022/08/26 18:34:20;;;;;;;6.20;3.75;;;;;21.10;101164.00;;;;12779876;22;20186;-77
2022/08/26 18:39:21;;;;;;;6.47;2.70;;;;;20.90;101166.00;;;;12811170;22;20197;-77
2022/08/26 18:44:24;;;;;;;23.50;19.27;;;;;20.80;101171.00;;;;12831675;22;20197;-77
2022/08/26 18:49:25;;;;;;;8.20;5.82;;;;;20.80;101171.00;;;;12857737;22;20248;-76
2022/08/26 18:54:28;;;;;;;5.78;3.00;;;;;20.70;101171.00;;;;12815547;22;20231;-77
2022/08/26 18:59:29;;;;;;;11.50;4.60;;;;;20.60;101182.00;;;;12790752;22;20224;-77
2022/08/26 19:04:31;;;;;;;8.70;3.13;;;;;20.50;101187.00;;;;12835888;22;20183;-77
2022/08/26 19:09:33;;;;;;;19.67;9.27;;;;;20.50;101185.00;;;;12790317;22;20173;-78
2022/08/26 19:14:35;;;;;;;5.63;2.67;;;;;20.40;101193.00;;;;12787011;22;20170;-79
2022/08/26 19:19:37;;;;;;;4.80;2.33;;;;;20.30;101196.00;;;;12809381;22;20285;-78
2022/08/26 19:24:40;;;;;;;15.23;12.23;;;;;20.10;101200.00;;;;12811269;22;20198;-78
2022/08/26 19:29:45;;;;;;;27.75;13.65;;;;;19.90;101204.00;;;;12785862;22;20170;-79
2022/08/26 19:34:46;;;;;;;24.15;16.13;;;;;19.70;101207.00;;;;12786562;22;20178;-78
2022/08/26 19:39:48;;;;;;;16.85;12.00;;;;;19.50;101213.00;;;;12811487;22;20186;-78
2022/08/26 19:45:09;;;;;;;8.88;5.85;;;;;19.40;101217.00;;;;12787672;22;20293;-77
2022/08/26 19:50:31;;;;;;;10.40;7.70;;;;;19.40;101224.00;;;;12812372;22;20252;-77
2022/08/26 19:55:33;;;;;;;4.43;3.10;;;;;19.30;101231.00;;;;12813745;22;20174;-78
2022/08/26 20:00:38;;;;;;;6.15;3.35;;;;;19.40;101228.00;;;;12787027;22;20194;-78
2022/08/26 20:05:40;;;;;;;4.93;2.60;;;;;19.40;101229.00;;;;12787905;22;20597;-78
2022/08/26 20:10:43;;;;;;;32.67;27.30;;;;;19.30;101237.00;;;;12809787;22;20514;-79
2022/08/26 20:15:44;;;;;;;34.13;26.48;;;;;19.20;101231.00;;;;12786785;22;20177;-79
2022/08/26 20:26:05;;;;;;;7.60;2.55;;;;;19.00;101243.00;;;;12780791;22;20244;-78
2022/08/26 20:31:06;;;;;;;10.25;3.97;;;;;19.00;101243.00;;;;12837483;22;20185;-79
2022/08/26 20:36:10;;;;;;;5.50;2.38;;;;;19.00;101235.00;;;;12812983;22;20198;-79
2022/08/26 20:41:12;;;;;;;15.90;8.60;;;;;19.10;101244.00;;;;12787366;22;20261;-78
2022/08/26 20:46:14;;;;;;;10.95;6.85;;;;;19.10;101240.00;;;;12787786;22;20194;-79
2022/08/26 20:51:24;;;;;;;6.55;3.03;;;;;19.20;101245.00;;;;12832482;22;20162;-78
2022/08/26 20:56:26;;;;;;;5.57;2.75;;;;;19.20;101242.00;;;;12789698;22;20170;-78
2022/08/26 21:01:33;;;;;;;5.72;2.50;;;;;19.20;101253.00;;;;12861492;22;20193;-78
2022/08/26 21:06:35;;;;;;;5.88;1.85;;;;;19.20;101247.00;;;;12815347;22;20231;-78
2022/08/26 21:11:38;;;;;;;3.38;1.80;;;;;19.10;101250.00;;;;12789449;22;20166;-81
2022/08/26 21:16:40;;;;;;;5.07;2.00;;;;;19.00;101251.00;;;;12788644;22;20170;-80
2022/08/26 21:21:43;;;;;;;3.70;1.85;;;;;18.90;101238.00;;;;12791006;22;20198;-79
2022/08/26 21:26:46;;;;;;;6.30;2.55;;;;;18.90;101243.00;;;;12815963;22;20178;-80
2022/08/26 21:31:48;;;;;;;4.20;1.73;;;;;18.90;101242.00;;;;12860680;22;20212;-81
2022/08/26 21:36:49;;;;;;;5.65;2.20;;;;;18.80;101236.00;;;;12817855;22;20190;-80
2022/08/26 21:41:50;;;;;;;3.45;2.33;;;;;18.80;101246.00;;;;12793031;22;20633;-80
2022/08/26 21:46:52;;;;;;;8.90;2.28;;;;;18.70;101241.00;;;;12766166;22;20178;-80
2022/08/26 21:51:54;;;;;;;4.43;1.88;;;;;18.70;101245.00;;;;12785630;22;20201;-81
2022/08/26 21:56:55;;;;;;;4.43;1.92;;;;;18.60;101252.00;;;;12814100;22;20257;-80
2022/08/26 22:01:57;;;;;;;4.57;1.92;;;;;18.50;101255.00;;;;12817019;22;20194;-80
2022/08/26 22:06:58;;;;;;;4.20;2.00;;;;;18.50;101251.00;;;;12793445;22;20261;-80
2022/08/26 22:11:59;;;;;;;6.45;2.35;;;;;18.30;101242.00;;;;12839288;22;20166;-80
2022/08/26 22:17:01;;;;;;;5.07;2.17;;;;;18.20;101246.00;;;;12790279;22;20260;-80
2022/08/26 22:22:03;;;;;;;6.63;1.95;;;;;18.10;101260.00;;;;12766583;22;20194;-81
2022/08/26 22:27:04;;;;;;;5.72;2.13;;;;;18.00;101264.00;;;;12817018;22;20176;-80
2022/08/26 22:32:05;;;;;;;10.65;2.58;;;;;18.00;101265.00;;;;12862209;22;20162;-81
2022/08/26 22:37:07;;;;;;;5.88;2.58;;;;;18.00;101261.00;;;;12814270;22;20257;-80
2022/08/26 22:42:08;;;;;;;11.23;5.05;;;;;18.00;101258.00;;;;12820561;22;20197;-81
2022/08/26 22:47:09;;;;;;;7.03;2.60;;;;;17.90;101258.00;;;;12768846;22;20286;-81
2022/08/26 22:52:11;;;;;;;4.25;1.88;;;;;17.80;101249.00;;;;12817587;22;20178;-80
2022/08/26 22:57:12;;;;;;;4.25;2.30;;;;;17.60;101248.00;;;;12792885;22;20224;-80
2022/08/26 23:02:13;;;;;;;7.85;2.67;;;;;17.40;101256.00;;;;12841216;22;20204;-80
2022/08/26 23:07:15;;;;;;;45.30;18.77;;;;;17.30;101249.00;;;;12796526;22;20166;-80
2022/08/26 23:12:16;;;;;;;19.77;6.63;;;;;17.10;101252.00;;;;12772212;22;20178;-80
2022/08/26 23:17:18;;;;;;;11.90;6.03;;;;;17.10;101257.00;;;;12840337;22;20166;-80
2022/08/26 23:22:19;;;;;;;7.35;2.75;;;;;17.00;101261.00;;;;12793804;22;20780;-80
2022/08/26 23:27:21;;;;;;;7.20;2.28;;;;;17.00;101257.00;;;;12793888;22;20174;-80
2022/08/26 23:32:22;;;;;;;6.60;3.08;;;;;17.00;101259.00;;;;12794179;22;20178;-79
2022/08/26 23:37:26;;;;;;;20.38;6.43;;;;;17.00;101265.00;;;;12771073;22;20194;-80
2022/08/26 23:42:27;;;;;;;6.45;2.30;;;;;17.00;101270.00;;;;12771279;22;20441;-80
2022/08/26 23:47:31;;;;;;;7.90;3.05;;;;;17.10;101264.00;;;;12797310;22;20224;-80
2022/08/26 23:57:52;;;;;;;8.57;4.60;;;;;17.10;101264.00;;;;12839391;22;20173;-80
